메인 페이지
METAR-TAF:

METAR-TAF

공항 :

인헤니에로 아에로나르띠꼬 엠브로시오 L.V. 타라벨라 국제공항

코르도바, 아르헨티나

위도: 31-19S, 경도: 064-13W, 고도: 484m

현재 날씨관측

예보는 40분 전, 02:00시(UTC)에 발표되었습니다.
남남서13kt
온도 24°C
습도 50%
기압 1015 hPa
시정 10km 이상
1500m 미만 상공 구름 및 적란운 없음

METAR: SACO 030200Z 20013KT CAVOK 24/13 Q1015 NOSIG

시각: 23:40 (02:40 UTC)

예보

예보는 3 시간 40분 전, 23:00시(UTC)에 발표되었습니다.
예보 대상 시간: 03일 00시부터 03일 24시까지 (UTC)
남남동10kt
시정 10km 이상
고도 3000ft 상공 구름 많음
고도 5000ft 상공 구름 조금, 타워링 적운.
전환 중
03일 02시부터 03일 05시까지 (UTC)
15kt, 순간 최대 풍속 25kt
시정: 5000m
고도 1500ft 상공 구름 많음
고도 4000ft 상공 구름 보통, 적란운.
뇌우, 비
전환 중
03일 10시부터 03일 13시까지 (UTC)
10kt
시정 10km 이상
고도 1500ft 상공 구름 많음
전환 중
03일 16시부터 03일 19시까지 (UTC)
남동5kt
시정 10km 이상
고도 3000ft 상공 구름 많음

TAF: SACO 022300Z 0300/0324 16010KT 9999 BKN030 FEW050TCU TX23/0318Z TN17/0310Z BECMG 0302/0305 18015G25KT 5000 TSRA BKN015 SCT040CB BECMG 0310/0313 18010KT 9999 NSW BKN015 BECMG 0316/0319 14005KT 9999 BKN030

4,000개 이상의 공항 관측 자료 및 예보 (METAR 및 TAF 보고).

지도상에서 검색 가능한 기상관측소가 노란 점과 빨간 점으로 표시되어 있습니다.

기상관측소 명을 보려면 표시 위로 마우스를 이동하세요.

날씨 관측과 예보를 보려면 클릭하세요.

지도 변경 : 확대하려면 엑스 표시가 있는 녹색 버튼, 축소하려면 빼기 표시가 있는 녹색 버튼, 다음 페이지의 지도를 보려면 녹색 화살표를 클릭하세요.


METAR-TAF: